createdAt,value
2024-02-19T00:01:40.133Z,9.45
2024-02-19T00:04:09.914Z,9.47
2024-02-19T00:06:37.880Z,9.39
2024-02-19T00:09:06.185Z,9.33
2024-02-19T00:11:34.058Z,9.32
2024-02-19T00:14:02.168Z,9.28
2024-02-19T00:16:29.909Z,9.30
2024-02-19T00:18:57.930Z,9.28
2024-02-19T00:21:27.546Z,9.43
2024-02-19T00:23:55.289Z,9.28
2024-02-19T00:26:23.032Z,9.29
2024-02-19T00:28:51.409Z,9.34
2024-02-19T00:31:19.371Z,9.35
2024-02-19T00:33:48.696Z,9.37
2024-02-19T00:36:16.650Z,9.39
2024-02-19T00:38:45.889Z,9.55
2024-02-19T00:41:13.676Z,9.46
2024-02-19T00:43:41.488Z,9.38
2024-02-19T00:46:09.300Z,9.40
2024-02-19T00:48:37.074Z,9.38
2024-02-19T00:51:06.032Z,9.37
2024-02-19T00:53:33.787Z,9.49
2024-02-19T00:56:03.064Z,9.45
2024-02-19T00:58:31.256Z,9.46
2024-02-19T01:00:59.648Z,9.42
2024-02-19T01:03:28.025Z,9.55
2024-02-19T01:05:55.952Z,9.56
2024-02-19T01:08:23.874Z,9.48
2024-02-19T01:10:52.514Z,9.58
2024-02-19T01:13:21.639Z,9.51
2024-02-19T01:15:49.547Z,9.56
2024-02-19T01:18:18.044Z,9.55
2024-02-19T01:20:45.774Z,9.51
2024-02-19T01:23:13.487Z,9.57
2024-02-19T01:25:41.434Z,9.49
2024-02-19T01:28:09.706Z,9.44
2024-02-19T01:30:38.853Z,9.52
2024-02-19T01:33:07.608Z,9.50
2024-02-19T01:35:36.596Z,9.46
2024-02-19T01:38:05.551Z,9.65
2024-02-19T01:40:33.388Z,9.49
2024-02-19T01:43:03.222Z,9.57
2024-02-19T01:45:31.043Z,9.61
2024-02-19T01:48:02.017Z,9.52
2024-02-19T01:50:32.613Z,9.46
2024-02-19T01:53:03.515Z,9.49
2024-02-19T01:55:32.162Z,9.47
2024-02-19T01:58:00.048Z,9.46
2024-02-19T02:00:29.425Z,9.46
2024-02-19T02:02:57.715Z,9.49
2024-02-19T02:05:26.717Z,9.40
2024-02-19T02:07:55.518Z,9.55
2024-02-19T02:10:23.369Z,9.42
2024-02-19T02:12:51.156Z,9.41
2024-02-19T02:15:18.988Z,9.40
2024-02-19T02:17:46.903Z,9.45
2024-02-19T02:20:15.105Z,9.51
2024-02-19T02:22:44.585Z,9.58
2024-02-19T02:25:12.622Z,9.60
2024-02-19T02:27:42.285Z,9.61
2024-02-19T02:30:10.688Z,9.58
2024-02-19T02:32:38.984Z,9.59
2024-02-19T02:35:07.342Z,9.77
2024-02-19T02:37:35.106Z,9.78
2024-02-19T02:40:03.710Z,9.80
2024-02-19T02:42:31.610Z,9.72
2024-02-19T02:45:00.733Z,9.78
2024-02-19T02:47:28.745Z,9.81
2024-02-19T02:49:56.535Z,9.83
2024-02-19T02:52:24.360Z,9.76
2024-02-19T02:54:52.658Z,9.83
2024-02-19T02:57:22.042Z,9.87
2024-02-19T02:59:49.753Z,9.74
2024-02-19T03:02:19.110Z,9.72
2024-02-19T03:04:47.031Z,9.71
2024-02-19T03:07:14.904Z,9.61
2024-02-19T03:09:42.737Z,9.76
2024-02-19T03:12:10.533Z,9.86
2024-02-19T03:14:38.354Z,9.73
2024-02-19T03:17:08.439Z,9.75
2024-02-19T03:19:37.782Z,9.69
2024-02-19T03:22:06.434Z,9.60
2024-02-19T03:24:34.147Z,9.60
2024-02-19T03:27:03.315Z,9.49
2024-02-19T03:29:31.123Z,9.41
2024-02-19T03:31:59.151Z,9.47
2024-02-19T03:34:26.944Z,9.41
2024-02-19T03:36:56.229Z,9.47
2024-02-19T03:39:24.221Z,9.38
2024-02-19T03:41:51.936Z,9.48
2024-02-19T03:44:19.705Z,9.32
2024-02-19T03:46:47.717Z,9.35
2024-02-19T03:49:15.674Z,9.34
2024-02-19T03:51:43.438Z,9.39
2024-02-19T03:54:14.498Z,9.30
2024-02-19T03:56:42.450Z,9.24
2024-02-19T03:59:10.597Z,9.30
2024-02-19T04:01:38.972Z,9.23
2024-02-19T04:04:07.077Z,9.20
2024-02-19T04:06:34.951Z,9.18
2024-02-19T04:09:02.957Z,9.42
2024-02-19T04:11:32.356Z,9.34
2024-02-19T04:13:59.339Z,9.27
2024-02-19T04:16:27.571Z,9.30
2024-02-19T04:18:55.483Z,9.24
2024-02-19T04:21:23.672Z,9.17
2024-02-19T04:23:51.358Z,9.19
2024-02-19T04:26:19.088Z,9.32
2024-02-19T04:28:48.141Z,9.27
2024-02-19T04:31:15.911Z,9.19
2024-02-19T04:33:45.111Z,9.17
2024-02-19T04:36:13.384Z,9.14
2024-02-19T04:38:41.986Z,9.12
2024-02-19T04:41:09.784Z,9.09
2024-02-19T04:43:37.471Z,9.10
2024-02-19T04:46:07.244Z,9.10
2024-02-19T04:48:36.375Z,9.07
2024-02-19T04:51:04.317Z,9.08
2024-02-19T04:53:32.508Z,9.15
2024-02-19T04:56:00.815Z,9.09
2024-02-19T04:58:28.711Z,9.07
2024-02-19T05:00:56.619Z,9.05
2024-02-19T05:03:25.792Z,9.18
2024-02-19T05:05:53.584Z,9.14
2024-02-19T05:08:21.291Z,9.12
2024-02-19T05:10:49.059Z,9.12
2024-02-19T05:13:16.822Z,9.09
2024-02-19T05:15:45.436Z,9.06
2024-02-19T05:18:13.409Z,9.12
2024-02-19T05:20:42.576Z,9.19
2024-02-19T05:23:10.449Z,9.36
2024-02-19T05:25:38.113Z,9.26
2024-02-19T05:28:06.235Z,9.30
2024-02-19T05:30:34.178Z,9.37
2024-02-19T05:33:02.051Z,9.31
2024-02-19T05:35:29.926Z,9.40
2024-02-19T05:37:59.164Z,9.22
2024-02-19T05:40:27.056Z,9.18
2024-02-19T05:42:55.075Z,9.17
2024-02-19T05:45:23.468Z,9.11
2024-02-19T05:47:51.419Z,9.10
2024-02-19T05:50:19.793Z,9.05
2024-02-19T05:52:47.496Z,9.05
2024-02-19T05:55:16.958Z,9.06
2024-02-19T05:57:45.092Z,8.95
2024-02-19T06:00:15.339Z,8.86
2024-02-19T06:02:43.577Z,8.83
2024-02-19T06:05:12.612Z,8.78
2024-02-19T06:07:41.144Z,8.76
2024-02-19T06:10:09.818Z,8.75
2024-02-19T06:12:38.972Z,8.70
2024-02-19T06:15:07.487Z,8.70
2024-02-19T06:17:35.477Z,8.66
2024-02-19T06:20:03.389Z,8.64
2024-02-19T06:22:31.220Z,8.55
2024-02-19T06:24:59.001Z,8.54
2024-02-19T06:27:26.805Z,8.61
2024-02-19T06:29:56.000Z,8.56
2024-02-19T06:32:23.745Z,8.47
2024-02-19T06:34:51.631Z,8.45
2024-02-19T06:37:20.032Z,8.41
2024-02-19T06:39:47.887Z,8.38
2024-02-19T06:42:16.079Z,8.35
2024-02-19T06:44:43.746Z,8.34
2024-02-19T06:47:14.317Z,8.28
2024-02-19T06:49:42.780Z,8.33
2024-02-19T06:52:10.766Z,8.33
2024-02-19T06:54:38.577Z,8.39
2024-02-19T06:57:06.993Z,8.50
2024-02-19T06:59:34.772Z,8.49
2024-02-19T07:02:05.812Z,8.53
2024-02-19T07:04:40.936Z,8.82
2024-02-19T07:07:11.091Z,8.76
2024-02-19T07:09:39.566Z,8.78
2024-02-19T07:12:07.713Z,8.75
2024-02-19T07:14:35.644Z,8.83
2024-02-19T07:17:03.672Z,8.76
2024-02-19T07:19:31.737Z,8.72
2024-02-19T07:22:01.469Z,8.73
2024-02-19T07:24:30.530Z,8.82
2024-02-19T07:26:59.222Z,8.89
2024-02-19T07:29:27.749Z,8.84
2024-02-19T07:31:55.621Z,8.82
2024-02-19T07:34:23.555Z,8.85
2024-02-19T07:36:51.512Z,8.88
2024-02-19T07:39:21.973Z,8.83
2024-02-19T07:41:49.676Z,8.92
2024-02-19T07:44:17.529Z,8.95
2024-02-19T07:46:45.805Z,8.91
2024-02-19T07:49:13.598Z,8.91
2024-02-19T07:51:41.915Z,8.89
2024-02-19T07:54:09.709Z,8.93
2024-02-19T07:56:38.811Z,8.91
2024-02-19T07:59:06.818Z,9.01
2024-02-19T08:01:34.775Z,8.92
2024-02-19T08:04:02.923Z,8.97
2024-02-19T08:06:30.874Z,8.99
2024-02-19T08:08:59.757Z,9.00
2024-02-19T08:11:28.949Z,9.06
2024-02-19T08:13:58.187Z,9.11
2024-02-19T08:16:28.680Z,9.15
2024-02-19T08:18:57.007Z,9.26
2024-02-19T08:21:25.577Z,9.39
2024-02-19T08:23:53.832Z,9.43
2024-02-19T08:26:22.222Z,9.39
2024-02-19T08:28:50.287Z,9.47
2024-02-19T08:31:19.485Z,9.56
2024-02-19T08:33:47.461Z,9.79
2024-02-19T08:36:15.552Z,9.73
2024-02-19T08:38:45.932Z,9.77
2024-02-19T08:41:13.804Z,9.78
2024-02-19T08:43:41.857Z,9.75
2024-02-19T08:46:09.612Z,9.75
2024-02-19T08:48:39.157Z,9.86
2024-02-19T08:51:07.046Z,10.01
2024-02-19T08:53:34.730Z,9.99
2024-02-19T08:56:02.712Z,10.19
2024-02-19T08:58:32.244Z,10.10
2024-02-19T09:01:00.743Z,10.11
2024-02-19T09:03:29.174Z,10.07
2024-02-19T09:05:58.931Z,10.01
2024-02-19T09:08:27.573Z,10.00
2024-02-19T09:10:55.918Z,10.15
2024-02-19T09:13:23.857Z,10.04
2024-02-19T09:15:51.657Z,10.00
2024-02-19T09:18:20.301Z,10.09
2024-02-19T09:20:48.366Z,10.17
2024-02-19T09:23:18.062Z,10.22
2024-02-19T09:25:45.811Z,10.25
2024-02-19T09:28:13.943Z,10.28
2024-02-19T09:30:41.757Z,10.28
2024-02-19T09:33:09.552Z,10.35
2024-02-19T09:35:38.394Z,10.37
2024-02-19T09:38:06.638Z,10.40
2024-02-19T09:40:38.781Z,10.40
2024-02-19T09:43:07.795Z,10.49
2024-02-19T09:45:37.383Z,10.60
2024-02-19T09:48:07.783Z,10.60
2024-02-19T09:50:36.766Z,10.64
2024-02-19T09:53:11.938Z,10.76
2024-02-19T09:55:41.227Z,10.88
2024-02-19T09:58:09.257Z,11.00
2024-02-19T10:00:37.642Z,11.27
2024-02-19T10:03:07.319Z,11.33
2024-02-19T10:05:35.245Z,11.45
2024-02-19T10:08:06.205Z,11.54
2024-02-19T10:10:38.922Z,11.68
2024-02-19T10:13:10.650Z,11.64
2024-02-19T10:15:38.882Z,11.67
2024-02-19T10:18:14.467Z,11.80
2024-02-19T10:20:51.785Z,11.99
2024-02-19T10:23:23.851Z,12.12
2024-02-19T10:25:52.606Z,12.34
2024-02-19T10:28:23.362Z,12.27
2024-02-19T10:30:51.306Z,12.15
2024-02-19T10:33:20.044Z,12.07
2024-02-19T10:35:49.662Z,12.06
2024-02-19T10:38:17.612Z,11.98
2024-02-19T10:40:46.026Z,11.91
2024-02-19T10:43:15.238Z,12.04
2024-02-19T10:45:44.712Z,12.01
2024-02-19T10:48:14.363Z,12.11
2024-02-19T10:50:42.899Z,12.34
2024-02-19T10:53:10.682Z,12.37
2024-02-19T10:55:49.662Z,12.45
2024-02-19T10:58:28.123Z,12.47
2024-02-19T11:00:59.630Z,12.43
2024-02-19T11:03:27.488Z,12.20
2024-02-19T11:06:00.922Z,12.60
2024-02-19T11:08:35.703Z,12.71
2024-02-19T11:11:06.504Z,12.74
2024-02-19T11:13:38.263Z,12.66
2024-02-19T11:16:18.380Z,12.95
2024-02-19T11:18:46.559Z,13.10
2024-02-19T11:21:14.543Z,13.01
2024-02-19T11:23:42.639Z,13.21
2024-02-19T11:26:13.496Z,13.84
2024-02-19T11:28:41.797Z,14.33
2024-02-19T11:31:15.016Z,14.14
2024-02-19T11:33:45.499Z,13.87
2024-02-19T11:36:13.310Z,13.40
2024-02-19T11:38:41.071Z,13.27
2024-02-19T11:41:11.806Z,13.39
2024-02-19T11:43:40.782Z,13.78
2024-02-19T11:46:09.528Z,13.82
2024-02-19T11:48:38.062Z,13.76
2024-02-19T11:51:07.576Z,13.25
2024-02-19T11:53:37.071Z,13.18
2024-02-19T11:56:05.267Z,12.81
2024-02-19T11:58:33.475Z,13.01
2024-02-19T12:01:02.780Z,13.04
2024-02-19T12:03:30.599Z,12.79
2024-02-19T12:05:59.355Z,12.49
2024-02-19T12:08:30.323Z,12.54
2024-02-19T12:10:58.006Z,12.90
2024-02-19T12:13:27.053Z,13.05
2024-02-19T12:15:55.687Z,13.28
2024-02-19T12:18:23.938Z,13.23
2024-02-19T12:20:52.589Z,13.43
2024-02-19T12:23:20.419Z,13.51
2024-02-19T12:25:49.871Z,13.18
2024-02-19T12:28:17.878Z,12.75
2024-02-19T12:30:45.691Z,12.38
2024-02-19T12:33:13.739Z,12.14
2024-02-19T12:35:41.979Z,12.25
2024-02-19T12:38:10.030Z,12.10
2024-02-19T12:40:37.816Z,12.03
2024-02-19T12:43:08.013Z,11.83
2024-02-19T12:45:35.799Z,11.90
2024-02-19T12:48:04.193Z,11.75
2024-02-19T12:50:32.593Z,11.69
2024-02-19T12:53:01.831Z,11.63
2024-02-19T12:55:29.889Z,11.60
2024-02-19T12:57:58.004Z,11.53
2024-02-19T13:00:27.643Z,11.52
2024-02-19T13:02:56.084Z,11.49
2024-02-19T13:05:23.863Z,11.53
2024-02-19T13:07:51.848Z,11.60
2024-02-19T13:10:19.791Z,11.54
2024-02-19T13:12:47.662Z,11.54
2024-02-19T13:15:16.116Z,11.57
2024-02-19T13:17:46.808Z,11.71
2024-02-19T13:20:16.153Z,11.63
2024-02-19T13:22:44.558Z,11.64
2024-02-19T13:25:12.423Z,11.60
2024-02-19T13:27:40.537Z,11.62
2024-02-19T13:30:10.633Z,11.59
2024-02-19T13:32:38.929Z,11.60
2024-02-19T13:35:12.261Z,11.99
2024-02-19T13:37:41.207Z,11.95
2024-02-19T13:40:12.145Z,11.93
2024-02-19T13:42:40.584Z,11.88
2024-02-19T13:45:10.486Z,11.78
2024-02-19T13:47:40.156Z,11.95
2024-02-19T13:50:12.274Z,12.11
2024-02-19T13:52:40.508Z,11.87
2024-02-19T13:55:09.124Z,11.71
2024-02-19T13:57:36.984Z,11.65
2024-02-19T14:00:06.465Z,11.57
2024-02-19T14:02:34.790Z,11.62
2024-02-19T14:05:03.128Z,11.68
2024-02-19T14:07:32.644Z,11.82
2024-02-19T14:10:01.810Z,11.62
2024-02-19T14:12:29.928Z,11.62
2024-02-19T14:14:57.744Z,11.61
2024-02-19T14:17:25.684Z,11.73
2024-02-19T14:19:54.383Z,11.74
2024-02-19T14:22:23.307Z,11.75
2024-02-19T14:24:53.158Z,11.66
2024-02-19T14:27:21.193Z,11.66
2024-02-19T14:29:49.653Z,11.65
2024-02-19T14:32:17.916Z,11.64
2024-02-19T14:34:45.773Z,11.60
2024-02-19T14:37:14.503Z,11.54
2024-02-19T14:39:43.785Z,11.78
2024-02-19T14:42:13.567Z,11.67
2024-02-19T14:44:42.841Z,11.60
2024-02-19T14:47:12.082Z,11.82
2024-02-19T14:49:40.740Z,11.66
2024-02-19T14:52:08.954Z,11.51
2024-02-19T14:54:36.857Z,11.58
2024-02-19T14:57:05.624Z,11.49
2024-02-19T14:59:36.791Z,11.47
2024-02-19T15:02:05.017Z,11.43
2024-02-19T15:04:33.384Z,11.46
2024-02-19T15:07:01.933Z,11.45
2024-02-19T15:09:30.363Z,11.41
2024-02-19T15:11:58.263Z,11.40
2024-02-19T15:14:26.017Z,11.38
2024-02-19T15:16:55.318Z,11.36
2024-02-19T15:19:23.204Z,11.32
2024-02-19T15:21:51.046Z,11.28
2024-02-19T15:24:18.894Z,11.28
2024-02-19T15:26:46.864Z,11.28
2024-02-19T15:29:18.109Z,11.25
2024-02-19T15:31:45.884Z,11.24
2024-02-19T15:34:15.424Z,11.31
2024-02-19T15:36:43.474Z,11.16
2024-02-19T15:39:13.102Z,11.10
2024-02-19T15:41:41.000Z,11.06
2024-02-19T15:44:09.468Z,11.01
2024-02-19T15:46:37.698Z,11.08
2024-02-19T15:49:05.939Z,11.12
2024-02-19T15:51:36.369Z,11.24
2024-02-19T15:54:04.497Z,11.20
2024-02-19T15:56:32.562Z,11.30
2024-02-19T15:59:00.368Z,11.30
2024-02-19T16:01:28.606Z,11.26
2024-02-19T16:03:56.734Z,11.10
2024-02-19T16:06:28.945Z,10.99
2024-02-19T16:08:58.954Z,10.96
2024-02-19T16:11:27.069Z,10.87
2024-02-19T16:13:57.283Z,10.86
2024-02-19T16:16:25.118Z,10.85
2024-02-19T16:18:53.152Z,10.82
2024-02-19T16:21:21.489Z,10.75
2024-02-19T16:23:49.710Z,10.71
2024-02-19T16:26:18.940Z,10.68
2024-02-19T16:28:47.753Z,10.69
2024-02-19T16:31:15.845Z,10.66
2024-02-19T16:33:44.036Z,10.63
2024-02-19T16:36:12.104Z,10.53
2024-02-19T16:38:41.931Z,10.44
2024-02-19T16:41:10.164Z,10.34
2024-02-19T16:43:39.992Z,10.22
2024-02-19T16:46:08.148Z,10.23
2024-02-19T16:48:40.268Z,10.21
2024-02-19T16:51:08.838Z,10.19
2024-02-19T16:53:37.643Z,10.22
2024-02-19T16:56:06.184Z,10.28
2024-02-19T16:58:35.992Z,10.31
2024-02-19T17:01:06.872Z,10.33
2024-02-19T17:03:35.286Z,10.33
2024-02-19T17:06:03.418Z,10.27
2024-02-19T17:08:31.792Z,10.34
2024-02-19T17:10:59.904Z,10.31
2024-02-19T17:13:28.058Z,10.36
2024-02-19T17:15:55.946Z,10.48
2024-02-19T17:18:25.629Z,10.58
2024-02-19T17:20:53.516Z,10.51
2024-02-19T17:23:21.491Z,10.52
2024-02-19T17:25:49.266Z,10.54
2024-02-19T17:28:19.811Z,10.50
2024-02-19T17:30:47.893Z,10.51
2024-02-19T17:33:16.207Z,10.49
2024-02-19T17:35:46.101Z,10.49
2024-02-19T17:38:15.595Z,10.39
2024-02-19T17:40:45.156Z,10.42
2024-02-19T17:43:13.652Z,10.42
2024-02-19T17:45:41.642Z,10.48
2024-02-19T17:48:14.009Z,10.60
2024-02-19T17:50:42.845Z,10.66
2024-02-19T17:53:12.472Z,10.54
2024-02-19T17:55:41.014Z,10.57
2024-02-19T17:58:09.002Z,10.48
2024-02-19T18:00:36.933Z,10.43
2024-02-19T18:03:05.098Z,10.46
2024-02-19T18:05:33.117Z,10.46
2024-02-19T18:08:00.846Z,10.36
2024-02-19T18:10:30.155Z,10.37
2024-02-19T18:12:58.256Z,10.33
2024-02-19T18:15:27.585Z,10.33
2024-02-19T18:17:58.131Z,10.31
2024-02-19T18:20:26.700Z,10.25
2024-02-19T18:22:57.046Z,10.20
2024-02-19T18:25:25.492Z,10.25
2024-02-19T18:27:56.815Z,10.17
2024-02-19T18:30:25.356Z,10.13
2024-02-19T18:32:53.360Z,10.13
2024-02-19T18:35:21.692Z,10.10
2024-02-19T18:37:50.242Z,10.09
2024-02-19T18:40:18.461Z,10.08
2024-02-19T18:42:46.305Z,10.05
2024-02-19T18:45:15.419Z,10.08
2024-02-19T18:47:45.026Z,10.08
2024-02-19T18:50:13.377Z,10.10
2024-02-19T18:52:41.179Z,10.05
2024-02-19T18:55:10.016Z,10.02
2024-02-19T18:57:38.730Z,10.10
2024-02-19T19:00:10.751Z,10.10
2024-02-19T19:02:41.458Z,10.07
2024-02-19T19:05:10.431Z,10.06
2024-02-19T19:07:38.515Z,10.04
2024-02-19T19:10:06.994Z,10.01
2024-02-19T19:12:35.152Z,9.86
2024-02-19T19:15:04.949Z,9.76
2024-02-19T19:17:33.064Z,9.63
2024-02-19T19:20:06.484Z,9.56
2024-02-19T19:22:34.629Z,9.48
2024-02-19T19:25:03.241Z,9.39
2024-02-19T19:27:31.417Z,9.35
2024-02-19T19:30:00.908Z,9.36
2024-02-19T19:32:30.264Z,9.40
2024-02-19T19:34:58.366Z,9.36
2024-02-19T19:37:28.789Z,9.32
2024-02-19T19:39:56.729Z,9.32
2024-02-19T19:42:27.157Z,9.35
2024-02-19T19:44:56.714Z,9.42
2024-02-19T19:47:24.881Z,9.42
2024-02-19T19:49:53.009Z,9.36
2024-02-19T19:52:21.044Z,9.34
2024-02-19T19:54:50.716Z,9.34
2024-02-19T19:57:18.538Z,9.29
2024-02-19T19:59:49.102Z,9.27
2024-02-19T20:02:17.506Z,9.25
2024-02-19T20:04:48.798Z,9.27
2024-02-19T20:07:16.734Z,9.29
2024-02-19T20:09:47.194Z,9.27
2024-02-19T20:12:18.794Z,9.26
2024-02-19T20:14:46.965Z,9.28
2024-02-19T20:17:20.582Z,9.27
2024-02-19T20:19:50.423Z,9.30
2024-02-19T20:22:18.425Z,9.33
2024-02-19T20:24:46.927Z,9.37
2024-02-19T20:27:16.178Z,9.51
2024-02-19T20:29:44.580Z,9.45
2024-02-19T20:32:12.623Z,9.39
2024-02-19T20:34:41.342Z,9.40
2024-02-19T20:37:11.542Z,9.38
2024-02-19T20:39:39.459Z,9.37
2024-02-19T20:42:07.334Z,9.34
2024-02-19T20:44:36.757Z,9.30
2024-02-19T20:47:05.261Z,9.28
2024-02-19T20:49:33.264Z,9.27
2024-02-19T20:52:02.630Z,9.28
2024-02-19T20:54:31.854Z,9.27
2024-02-19T20:56:59.786Z,9.26
2024-02-19T20:59:28.462Z,9.29
2024-02-19T21:01:58.573Z,9.26
2024-02-19T21:04:26.851Z,9.26
2024-02-19T21:06:54.868Z,9.29
2024-02-19T21:09:23.257Z,9.32
2024-02-19T21:11:51.223Z,9.35
2024-02-19T21:14:19.002Z,9.37
2024-02-19T21:16:47.234Z,9.45
2024-02-19T21:19:19.703Z,9.45
2024-02-19T21:21:47.863Z,9.45
2024-02-19T21:24:16.043Z,9.45
2024-02-19T21:26:44.039Z,9.43
2024-02-19T21:29:11.801Z,9.45
2024-02-19T21:31:40.341Z,9.39
2024-02-19T21:34:11.532Z,9.37
2024-02-19T21:36:44.903Z,9.39
2024-02-19T21:39:15.547Z,9.43
2024-02-19T21:41:44.924Z,9.44
2024-02-19T21:44:14.598Z,9.43
2024-02-19T21:46:44.268Z,9.44
2024-02-19T21:49:12.205Z,9.46
2024-02-19T21:51:42.744Z,9.54
2024-02-19T21:54:10.804Z,9.55
2024-02-19T21:56:38.761Z,9.51
2024-02-19T21:59:06.830Z,9.60
2024-02-19T22:01:35.232Z,9.53
2024-02-19T22:04:03.447Z,9.53
2024-02-19T22:06:31.395Z,9.45
2024-02-19T22:09:02.354Z,9.41
2024-02-19T22:11:30.296Z,9.35
2024-02-19T22:13:58.173Z,9.36
2024-02-19T22:16:26.008Z,9.29
2024-02-19T22:18:54.409Z,9.28
2024-02-19T22:21:22.324Z,9.25
2024-02-19T22:23:50.191Z,9.21
2024-02-19T22:26:19.284Z,9.20
2024-02-19T22:28:47.080Z,9.34
2024-02-19T22:31:14.807Z,9.27
2024-02-19T22:33:43.440Z,9.24
2024-02-19T22:36:12.290Z,9.25
2024-02-19T22:38:41.218Z,9.15
2024-02-19T22:41:10.124Z,9.06
2024-02-19T22:43:41.032Z,9.01
2024-02-19T22:46:09.645Z,9.13
2024-02-19T22:48:38.078Z,9.01
2024-02-19T22:51:06.433Z,8.90
2024-02-19T22:53:34.664Z,8.97
2024-02-19T22:56:03.221Z,8.90
2024-02-19T22:58:34.849Z,8.78
2024-02-19T23:01:06.371Z,8.74
2024-02-19T23:03:36.003Z,8.67
2024-02-19T23:06:04.776Z,8.54
2024-02-19T23:08:33.080Z,8.52
2024-02-19T23:11:01.741Z,8.62
2024-02-19T23:13:30.312Z,8.91
2024-02-19T23:15:58.808Z,8.75
2024-02-19T23:18:28.565Z,8.58
2024-02-19T23:20:56.756Z,8.85
2024-02-19T23:23:25.716Z,8.66
2024-02-19T23:25:55.411Z,8.52
2024-02-19T23:28:24.017Z,8.60
2024-02-19T23:30:53.569Z,8.55
2024-02-19T23:33:21.792Z,8.57
2024-02-19T23:35:51.488Z,8.56
2024-02-19T23:38:20.855Z,8.63
2024-02-19T23:40:48.823Z,8.72
2024-02-19T23:43:16.990Z,8.73
2024-02-19T23:45:44.890Z,8.45
2024-02-19T23:48:12.800Z,8.31
2024-02-19T23:50:41.487Z,8.17
2024-02-19T23:53:10.945Z,8.16
2024-02-19T23:55:39.014Z,8.02
2024-02-19T23:58:06.825Z,8.16
